Thursday, August 16, 2018, 3:51 AM GMT
Back to Local

CWSD, Summerside Automatic Weather Reporting System

Location: , , Canada Lat: 46.433
Local Time: 3:51 AM GMT ( 3:51 GMT) Lon: -63.85
Time Zone: GMT Elev: 78 ft

Show me the last for .
Show Coded

Time T Td Feel RH Dir Speed Gust Alt SLP Vis Weather Sky Remarks
2018-08-16 03:00 68 66 - 92 230° 9 - - 29.78 0 None
2018-08-16 02:00 69 66 - 92 220° 12 - - 29.78 0 None
2018-08-16 01:00 70 67 76 89 220° 10 - - 29.77 0 None
2018-08-16 00:00 71 67 76 85 210° 12 - - 29.76 0 None
2018-08-15 23:00 73 67 77 81 210° 13 - - 29.76 0 Peak wind: 19 mph (17 kts) from 200° at 23 min
2018-08-15 22:00 76 66 79 69 210° 13 18 - 29.76 0 None
2018-08-15 21:00 79 66 82 64 230° 12 - - 29.75 0 Peak wind: 25 mph (22 kts) from 210° at 08 min
2018-08-15 20:00 79 67 82 66 210° 20 - - 29.75 0 Peak wind: 25 mph (22 kts) from 210° at 19 min
2018-08-15 19:00 80 67 82 65 220° 16 - - 29.76 0 Peak wind: 24 mph (21 kts) from 230° at 11 min
2018-08-15 18:00 80 68 83 67 220° 14 21 - 29.77 0 Peak wind: 21 mph (19 kts) from 220° at 04 min
2018-08-15 17:00 76 69 80 76 210° 17 - - 29.78 0 Peak wind: 24 mph (21 kts) from 210° at 12 min
2018-08-15 16:00 77 70 80 78 210° 20 25 - 29.79 0 Peak wind: 25 mph (22 kts) from 200° at 40 min
2018-08-15 15:00 76 69 79 78 210° 10 - - 29.80 0 None
2018-08-15 14:00 73 67 77 81 210° 15 - - 29.81 0 Peak wind: 19 mph (17 kts) from 210° at 31 min
2018-08-15 13:00 72 68 76 87 210° 15 - - 29.81 0 Peak wind: 19 mph (17 kts) from 210° at 57 min
2018-08-15 12:00 71 68 76 89 210° 15 - - 29.81 0 Peak wind: 21 mph (19 kts) from 230° at 32 min
2018-08-15 11:00 70 67 - 91 220° 15 21 - 29.81 0 Peak wind: 20 mph (18 kts) from 210° at 50 min
2018-08-15 10:00 67 67 - 100 200° 13 21 - 29.81 0 Peak wind: 20 mph (18 kts) from 200° at 59 min
2018-08-15 09:00 69 68 - 94 210° 12 - - 29.80 0 None
2018-08-15 08:00 71 69 76 93 210° 13 - - 29.81 0 None
2018-08-15 07:00 71 69 76 94 210° 13 - - 29.82 0 Peak wind: 20 mph (18 kts) from 210° at 08 min
2018-08-15 06:00 71 69 76 94 210° 14 - - 29.83 0 None
2018-08-15 05:00 72 70 76 92 200° 10 - - 29.84 0 None
2018-08-15 04:00 71 70 76 94 190° 10 - - 29.85 0 None

Support USWX by starting your Amazon purchase here.